sensor_id;sensor_type;location;lat;lon;timestamp;temperature;humidity
17599;DHT22;8918;52.092;5.232;2023-05-18T00:02:05;8.40;99.90
17599;DHT22;8918;52.092;5.232;2023-05-18T00:04:35;8.40;99.90
17599;DHT22;8918;52.092;5.232;2023-05-18T00:07:02;8.40;99.90
17599;DHT22;8918;52.092;5.232;2023-05-18T00:09:30;8.30;99.90
17599;DHT22;8918;52.092;5.232;2023-05-18T00:11:56;8.30;99.90
17599;DHT22;8918;52.092;5.232;2023-05-18T00:14:22;8.30;99.90
17599;DHT22;8918;52.092;5.232;2023-05-18T00:16:48;8.20;99.90
17599;DHT22;8918;52.092;5.232;2023-05-18T00:19:14;8.20;99.90
17599;DHT22;8918;52.092;5.232;2023-05-18T00:21:43;8.20;99.90
17599;DHT22;8918;52.092;5.232;2023-05-18T00:24:10;8.20;99.90
17599;DHT22;8918;52.092;5.232;2023-05-18T00:26:46;8.20;99.90
17599;DHT22;8918;52.092;5.232;2023-05-18T00:29:12;8.20;99.90
17599;DHT22;8918;52.092;5.232;2023-05-18T00:31:38;8.10;99.90
17599;DHT22;8918;52.092;5.232;2023-05-18T00:34:05;8.10;99.90
17599;DHT22;8918;52.092;5.232;2023-05-18T00:36:31;8.10;99.90
17599;DHT22;8918;52.092;5.232;2023-05-18T00:38:59;8.10;99.90
17599;DHT22;8918;52.092;5.232;2023-05-18T00:41:26;8.10;99.90
17599;DHT22;8918;52.092;5.232;2023-05-18T00:43:55;8.00;99.90
17599;DHT22;8918;52.092;5.232;2023-05-18T00:46:22;8.00;99.90
17599;DHT22;8918;52.092;5.232;2023-05-18T00:48:49;7.90;99.90
17599;DHT22;8918;52.092;5.232;2023-05-18T00:51:16;7.90;99.90
17599;DHT22;8918;52.092;5.232;2023-05-18T00:53:42;7.90;99.90
17599;DHT22;8918;52.092;5.232;2023-05-18T00:56:09;7.90;99.90
17599;DHT22;8918;52.092;5.232;2023-05-18T00:58:35;7.90;99.90
17599;DHT22;8918;52.092;5.232;2023-05-18T01:01:02;7.90;99.90
17599;DHT22;8918;52.092;5.232;2023-05-18T01:03:37;7.80;99.90
17599;DHT22;8918;52.092;5.232;2023-05-18T01:06:07;7.80;99.90
17599;DHT22;8918;52.092;5.232;2023-05-18T01:08:35;7.70;99.90
17599;DHT22;8918;52.092;5.232;2023-05-18T01:11:11;7.80;99.90
17599;DHT22;8918;52.092;5.232;2023-05-18T01:14:01;7.70;99.90
17599;DHT22;8918;52.092;5.232;2023-05-18T01:16:34;7.60;99.90
17599;DHT22;8918;52.092;5.232;2023-05-18T01:22:04;7.50;99.90
17599;DHT22;8918;52.092;5.232;2023-05-18T01:24:37;7.50;99.90
17599;DHT22;8918;52.092;5.232;2023-05-18T01:27:07;7.50;99.90
17599;DHT22;8918;52.092;5.232;2023-05-18T01:29:34;7.40;99.90
17599;DHT22;8918;52.092;5.232;2023-05-18T01:32:00;7.40;99.90
17599;DHT22;8918;52.092;5.232;2023-05-18T01:34:26;7.40;99.90
17599;DHT22;8918;52.092;5.232;2023-05-18T01:36:51;7.50;99.90
17599;DHT22;8918;52.092;5.232;2023-05-18T01:39:17;7.50;99.90
17599;DHT22;8918;52.092;5.232;2023-05-18T01:42:20;7.50;99.90
17599;DHT22;8918;52.092;5.232;2023-05-18T01:44:53;7.50;99.90
17599;DHT22;8918;52.092;5.232;2023-05-18T01:47:20;7.50;99.90
17599;DHT22;8918;52.092;5.232;2023-05-18T01:49:53;7.40;99.90
17599;DHT22;8918;52.092;5.232;2023-05-18T01:55:03;7.50;99.90
17599;DHT22;8918;52.092;5.232;2023-05-18T01:57:31;7.50;99.90
17599;DHT22;8918;52.092;5.232;2023-05-18T01:59:58;7.50;99.90
17599;DHT22;8918;52.092;5.232;2023-05-18T02:02:24;7.40;99.90
17599;DHT22;8918;52.092;5.232;2023-05-18T02:04:50;7.40;99.90
17599;DHT22;8918;52.092;5.232;2023-05-18T02:07:16;7.40;99.90
17599;DHT22;8918;52.092;5.232;2023-05-18T02:09:41;7.40;99.90
17599;DHT22;8918;52.092;5.232;2023-05-18T02:12:08;7.40;99.90
17599;DHT22;8918;52.092;5.232;2023-05-18T02:14:34;7.40;99.90
17599;DHT22;8918;52.092;5.232;2023-05-18T02:17:00;7.30;99.90
17599;DHT22;8918;52.092;5.232;2023-05-18T02:19:25;7.30;99.90
17599;DHT22;8918;52.092;5.232;2023-05-18T02:21:51;7.30;99.90
17599;DHT22;8918;52.092;5.232;2023-05-18T02:24:17;7.20;99.90
17599;DHT22;8918;52.092;5.232;2023-05-18T02:26:42;7.20;99.90
17599;DHT22;8918;52.092;5.232;2023-05-18T02:29:08;7.20;99.90
17599;DHT22;8918;52.092;5.232;2023-05-18T02:31:36;7.20;99.90
17599;DHT22;8918;52.092;5.232;2023-05-18T02:34:02;7.10;99.90
17599;DHT22;8918;52.092;5.232;2023-05-18T02:36:28;7.10;99.90
17599;DHT22;8918;52.092;5.232;2023-05-18T02:39:02;7.10;99.90
17599;DHT22;8918;52.092;5.232;2023-05-18T02:41:28;7.10;99.90
17599;DHT22;8918;52.092;5.232;2023-05-18T02:43:54;7.10;99.90
17599;DHT22;8918;52.092;5.232;2023-05-18T02:46:20;7.10;99.90
17599;DHT22;8918;52.092;5.232;2023-05-18T02:48:46;7.10;99.90
17599;DHT22;8918;52.092;5.232;2023-05-18T02:51:12;7.10;99.90
17599;DHT22;8918;52.092;5.232;2023-05-18T02:53:38;7.20;99.90
17599;DHT22;8918;52.092;5.232;2023-05-18T02:56:03;7.10;99.90
17599;DHT22;8918;52.092;5.232;2023-05-18T02:58:29;7.20;99.90
17599;DHT22;8918;52.092;5.232;2023-05-18T03:00:55;7.10;99.90
17599;DHT22;8918;52.092;5.232;2023-05-18T03:03:21;7.00;99.90
17599;DHT22;8918;52.092;5.232;2023-05-18T03:05:48;7.00;99.90
17599;DHT22;8918;52.092;5.232;2023-05-18T03:08:18;7.00;99.90
17599;DHT22;8918;52.092;5.232;2023-05-18T03:10:43;7.00;99.90
17599;DHT22;8918;52.092;5.232;2023-05-18T03:13:09;6.90;99.90
17599;DHT22;8918;52.092;5.232;2023-05-18T03:15:35;6.90;99.90
17599;DHT22;8918;52.092;5.232;2023-05-18T03:18:02;6.90;99.90
17599;DHT22;8918;52.092;5.232;2023-05-18T03:20:27;6.90;99.90
17599;DHT22;8918;52.092;5.232;2023-05-18T03:22:57;6.80;99.90
17599;DHT22;8918;52.092;5.232;2023-05-18T03:25:22;6.80;99.90
17599;DHT22;8918;52.092;5.232;2023-05-18T03:27:50;6.80;99.90
17599;DHT22;8918;52.092;5.232;2023-05-18T03:30:17;6.80;99.90
17599;DHT22;8918;52.092;5.232;2023-05-18T03:32:44;6.90;99.90
17599;DHT22;8918;52.092;5.232;2023-05-18T03:35:11;6.90;99.90
17599;DHT22;8918;52.092;5.232;2023-05-18T03:37:37;6.80;99.90
17599;DHT22;8918;52.092;5.232;2023-05-18T03:40:11;6.80;99.90
17599;DHT22;8918;52.092;5.232;2023-05-18T03:42:37;6.70;99.90
17599;DHT22;8918;52.092;5.232;2023-05-18T03:45:03;6.60;99.90
17599;DHT22;8918;52.092;5.232;2023-05-18T03:47:29;6.60;99.90
17599;DHT22;8918;52.092;5.232;2023-05-18T03:49:55;6.60;99.90
17599;DHT22;8918;52.092;5.232;2023-05-18T03:52:20;6.60;99.90
17599;DHT22;8918;52.092;5.232;2023-05-18T03:54:49;6.60;99.90
17599;DHT22;8918;52.092;5.232;2023-05-18T03:57:18;6.60;99.90
17599;DHT22;8918;52.092;5.232;2023-05-18T03:59:44;6.60;99.90
17599;DHT22;8918;52.092;5.232;2023-05-18T04:02:11;6.60;99.90
17599;DHT22;8918;52.092;5.232;2023-05-18T04:04:38;6.70;99.90
17599;DHT22;8918;52.092;5.232;2023-05-18T04:07:07;6.60;99.90
17599;DHT22;8918;52.092;5.232;2023-05-18T04:09:33;6.60;99.90
17599;DHT22;8918;52.092;5.232;2023-05-18T04:11:59;6.50;99.90
17599;DHT22;8918;52.092;5.232;2023-05-18T04:14:25;6.50;99.90
17599;DHT22;8918;52.092;5.232;2023-05-18T04:16:52;6.50;99.90
17599;DHT22;8918;52.092;5.232;2023-05-18T04:19:18;6.50;99.90
17599;DHT22;8918;52.092;5.232;2023-05-18T04:21:46;6.50;99.90
17599;DHT22;8918;52.092;5.232;2023-05-18T04:24:11;6.50;99.90
17599;DHT22;8918;52.092;5.232;2023-05-18T04:26:39;6.50;99.90
17599;DHT22;8918;52.092;5.232;2023-05-18T04:29:06;6.50;99.90
17599;DHT22;8918;52.092;5.232;2023-05-18T04:31:36;6.50;99.90
17599;DHT22;8918;52.092;5.232;2023-05-18T04:34:02;6.50;99.90
17599;DHT22;8918;52.092;5.232;2023-05-18T04:36:27;6.50;99.90
17599;DHT22;8918;52.092;5.232;2023-05-18T04:38:56;6.60;99.90
17599;DHT22;8918;52.092;5.232;2023-05-18T04:41:25;6.60;99.90
17599;DHT22;8918;52.092;5.232;2023-05-18T04:43:51;6.60;99.90
17599;DHT22;8918;52.092;5.232;2023-05-18T04:46:17;6.60;99.90
17599;DHT22;8918;52.092;5.232;2023-05-18T04:48:43;6.60;99.90
17599;DHT22;8918;52.092;5.232;2023-05-18T04:51:09;6.70;99.90
17599;DHT22;8918;52.092;5.232;2023-05-18T04:53:34;6.70;99.90
17599;DHT22;8918;52.092;5.232;2023-05-18T04:56:03;6.80;99.90
17599;DHT22;8918;52.092;5.232;2023-05-18T04:58:29;6.80;99.90
17599;DHT22;8918;52.092;5.232;2023-05-18T05:00:55;6.90;99.90
17599;DHT22;8918;52.092;5.232;2023-05-18T05:03:21;6.90;99.90
17599;DHT22;8918;52.092;5.232;2023-05-18T05:05:47;6.90;99.90
17599;DHT22;8918;52.092;5.232;2023-05-18T05:08:12;6.90;99.90
17599;DHT22;8918;52.092;5.232;2023-05-18T05:10:38;7.00;99.90
17599;DHT22;8918;52.092;5.232;2023-05-18T05:13:03;7.10;99.90
17599;DHT22;8918;52.092;5.232;2023-05-18T05:15:29;7.10;99.90
17599;DHT22;8918;52.092;5.232;2023-05-18T05:17:57;7.20;99.90
17599;DHT22;8918;52.092;5.232;2023-05-18T05:20:22;7.30;99.90
17599;DHT22;8918;52.092;5.232;2023-05-18T05:22:48;7.30;99.90
17599;DHT22;8918;52.092;5.232;2023-05-18T05:25:13;7.30;99.90
17599;DHT22;8918;52.092;5.232;2023-05-18T05:27:39;7.40;99.90
17599;DHT22;8918;52.092;5.232;2023-05-18T05:30:05;7.50;99.90
17599;DHT22;8918;52.092;5.232;2023-05-18T05:32:31;7.50;99.90
17599;DHT22;8918;52.092;5.232;2023-05-18T05:34:57;7.60;99.90
17599;DHT22;8918;52.092;5.232;2023-05-18T05:37:22;7.60;99.90
17599;DHT22;8918;52.092;5.232;2023-05-18T05:39:48;7.60;99.90
17599;DHT22;8918;52.092;5.232;2023-05-18T05:42:15;7.70;99.90
17599;DHT22;8918;52.092;5.232;2023-05-18T05:44:41;7.70;99.90
17599;DHT22;8918;52.092;5.232;2023-05-18T05:47:07;7.80;99.90
17599;DHT22;8918;52.092;5.232;2023-05-18T05:49:34;7.80;99.90
17599;DHT22;8918;52.092;5.232;2023-05-18T05:51:59;7.80;99.90
17599;DHT22;8918;52.092;5.232;2023-05-18T05:54:25;7.80;99.90
17599;DHT22;8918;52.092;5.232;2023-05-18T05:56:50;7.90;99.90
17599;DHT22;8918;52.092;5.232;2023-05-18T05:59:16;7.90;99.90
17599;DHT22;8918;52.092;5.232;2023-05-18T06:01:42;7.90;99.90
17599;DHT22;8918;52.092;5.232;2023-05-18T06:04:08;8.00;99.90
17599;DHT22;8918;52.092;5.232;2023-05-18T06:06:37;8.00;99.90
17599;DHT22;8918;52.092;5.232;2023-05-18T06:09:03;8.10;99.90
17599;DHT22;8918;52.092;5.232;2023-05-18T06:11:29;8.20;99.90
17599;DHT22;8918;52.092;5.232;2023-05-18T06:13:56;8.20;99.90
17599;DHT22;8918;52.092;5.232;2023-05-18T06:16:23;8.30;99.90
17599;DHT22;8918;52.092;5.232;2023-05-18T06:18:48;8.40;99.90
17599;DHT22;8918;52.092;5.232;2023-05-18T06:21:14;8.40;99.90
17599;DHT22;8918;52.092;5.232;2023-05-18T06:23:40;8.50;99.90
17599;DHT22;8918;52.092;5.232;2023-05-18T06:26:05;8.50;99.90
17599;DHT22;8918;52.092;5.232;2023-05-18T06:28:31;8.60;99.90
17599;DHT22;8918;52.092;5.232;2023-05-18T06:30:57;8.60;99.90
17599;DHT22;8918;52.092;5.232;2023-05-18T06:33:23;8.70;99.90
17599;DHT22;8918;52.092;5.232;2023-05-18T06:35:49;8.80;99.90
17599;DHT22;8918;52.092;5.232;2023-05-18T06:38:14;8.80;99.90
17599;DHT22;8918;52.092;5.232;2023-05-18T06:40:40;8.90;99.90
17599;DHT22;8918;52.092;5.232;2023-05-18T06:43:05;8.90;99.90
17599;DHT22;8918;52.092;5.232;2023-05-18T06:45:31;9.00;99.90
17599;DHT22;8918;52.092;5.232;2023-05-18T06:47:56;9.10;99.90
17599;DHT22;8918;52.092;5.232;2023-05-18T06:50:22;9.20;99.90
17599;DHT22;8918;52.092;5.232;2023-05-18T06:52:48;9.30;99.90
17599;DHT22;8918;52.092;5.232;2023-05-18T06:55:13;9.50;99.90
17599;DHT22;8918;52.092;5.232;2023-05-18T06:57:39;9.60;99.90
17599;DHT22;8918;52.092;5.232;2023-05-18T07:00:06;9.70;99.90
17599;DHT22;8918;52.092;5.232;2023-05-18T07:02:33;9.70;99.90
17599;DHT22;8918;52.092;5.232;2023-05-18T07:04:58;9.90;99.90
17599;DHT22;8918;52.092;5.232;2023-05-18T07:07:25;10.00;99.90
17599;DHT22;8918;52.092;5.232;2023-05-18T07:09:51;10.10;99.90
17599;DHT22;8918;52.092;5.232;2023-05-18T07:12:19;10.10;99.90
17599;DHT22;8918;52.092;5.232;2023-05-18T07:14:44;10.20;99.90
17599;DHT22;8918;52.092;5.232;2023-05-18T07:17:10;10.40;99.90
17599;DHT22;8918;52.092;5.232;2023-05-18T07:19:35;10.50;99.90
17599;DHT22;8918;52.092;5.232;2023-05-18T07:22:02;10.60;99.90
17599;DHT22;8918;52.092;5.232;2023-05-18T07:24:29;10.80;99.90
17599;DHT22;8918;52.092;5.232;2023-05-18T07:26:55;10.90;99.90
17599;DHT22;8918;52.092;5.232;2023-05-18T07:29:20;11.00;99.90
17599;DHT22;8918;52.092;5.232;2023-05-18T07:31:46;11.10;99.90
17599;DHT22;8918;52.092;5.232;2023-05-18T07:34:11;11.30;99.90
17599;DHT22;8918;52.092;5.232;2023-05-18T07:36:37;11.40;99.90
17599;DHT22;8918;52.092;5.232;2023-05-18T07:39:03;11.40;99.90
17599;DHT22;8918;52.092;5.232;2023-05-18T07:41:28;11.50;99.90
17599;DHT22;8918;52.092;5.232;2023-05-18T07:43:56;11.50;99.90
17599;DHT22;8918;52.092;5.232;2023-05-18T07:46:22;11.60;99.90
17599;DHT22;8918;52.092;5.232;2023-05-18T07:48:47;11.70;99.90
17599;DHT22;8918;52.092;5.232;2023-05-18T07:51:13;11.70;99.90
17599;DHT22;8918;52.092;5.232;2023-05-18T07:53:38;11.70;99.90
17599;DHT22;8918;52.092;5.232;2023-05-18T07:56:06;11.70;99.90
17599;DHT22;8918;52.092;5.232;2023-05-18T07:58:34;11.80;99.90
17599;DHT22;8918;52.092;5.232;2023-05-18T08:00:59;11.90;99.90
17599;DHT22;8918;52.092;5.232;2023-05-18T08:03:25;11.90;99.90
17599;DHT22;8918;52.092;5.232;2023-05-18T08:05:50;11.80;99.90
17599;DHT22;8918;52.092;5.232;2023-05-18T08:08:16;11.80;99.90
17599;DHT22;8918;52.092;5.232;2023-05-18T08:10:43;11.70;99.90
17599;DHT22;8918;52.092;5.232;2023-05-18T08:13:08;11.80;99.90
17599;DHT22;8918;52.092;5.232;2023-05-18T08:15:34;11.70;99.90
17599;DHT22;8918;52.092;5.232;2023-05-18T08:18:01;11.70;99.90
17599;DHT22;8918;52.092;5.232;2023-05-18T08:20:27;11.70;99.90
17599;DHT22;8918;52.092;5.232;2023-05-18T08:22:55;11.70;99.90
17599;DHT22;8918;52.092;5.232;2023-05-18T08:25:22;11.60;99.90
17599;DHT22;8918;52.092;5.232;2023-05-18T08:27:48;11.60;99.90
17599;DHT22;8918;52.092;5.232;2023-05-18T08:30:14;11.50;99.90
17599;DHT22;8918;52.092;5.232;2023-05-18T08:32:40;11.60;99.90
17599;DHT22;8918;52.092;5.232;2023-05-18T08:35:06;11.60;99.90
17599;DHT22;8918;52.092;5.232;2023-05-18T08:37:33;11.60;99.90
17599;DHT22;8918;52.092;5.232;2023-05-18T08:39:58;11.60;99.90
17599;DHT22;8918;52.092;5.232;2023-05-18T08:44:57;11.60;99.90
17599;DHT22;8918;52.092;5.232;2023-05-18T08:47:25;11.70;99.90
17599;DHT22;8918;52.092;5.232;2023-05-18T08:49:51;11.70;99.90
17599;DHT22;8918;52.092;5.232;2023-05-18T08:52:21;11.70;99.90
17599;DHT22;8918;52.092;5.232;2023-05-18T08:54:50;11.80;99.90
17599;DHT22;8918;52.092;5.232;2023-05-18T08:57:19;11.80;99.90
17599;DHT22;8918;52.092;5.232;2023-05-18T08:59:48;11.80;99.90
17599;DHT22;8918;52.092;5.232;2023-05-18T09:02:16;11.90;99.90
17599;DHT22;8918;52.092;5.232;2023-05-18T09:04:42;11.90;99.90
17599;DHT22;8918;52.092;5.232;2023-05-18T09:07:09;12.00;99.90
17599;DHT22;8918;52.092;5.232;2023-05-18T09:09:35;12.00;99.90
17599;DHT22;8918;52.092;5.232;2023-05-18T09:12:03;12.10;99.90
17599;DHT22;8918;52.092;5.232;2023-05-18T09:14:31;12.10;99.90
17599;DHT22;8918;52.092;5.232;2023-05-18T09:16:56;12.20;99.90
17599;DHT22;8918;52.092;5.232;2023-05-18T09:19:22;12.30;99.90
17599;DHT22;8918;52.092;5.232;2023-05-18T09:21:49;12.30;99.90
17599;DHT22;8918;52.092;5.232;2023-05-18T09:24:14;12.40;99.90
17599;DHT22;8918;52.092;5.232;2023-05-18T09:26:40;12.50;99.90
17599;DHT22;8918;52.092;5.232;2023-05-18T09:29:19;12.60;99.90
17599;DHT22;8918;52.092;5.232;2023-05-18T09:31:46;12.70;99.90
17599;DHT22;8918;52.092;5.232;2023-05-18T09:34:12;12.70;99.90
17599;DHT22;8918;52.092;5.232;2023-05-18T09:36:38;12.80;99.90
17599;DHT22;8918;52.092;5.232;2023-05-18T09:39:09;12.80;99.90
17599;DHT22;8918;52.092;5.232;2023-05-18T09:41:38;13.00;99.90
17599;DHT22;8918;52.092;5.232;2023-05-18T09:44:05;13.10;99.90
17599;DHT22;8918;52.092;5.232;2023-05-18T09:46:37;13.20;99.90
17599;DHT22;8918;52.092;5.232;2023-05-18T09:49:03;13.40;99.90
17599;DHT22;8918;52.092;5.232;2023-05-18T09:51:29;13.50;99.90
17599;DHT22;8918;52.092;5.232;2023-05-18T09:53:57;13.70;99.90
17599;DHT22;8918;52.092;5.232;2023-05-18T09:56:24;14.00;99.90
17599;DHT22;8918;52.092;5.232;2023-05-18T09:58:51;14.30;99.90
17599;DHT22;8918;52.092;5.232;2023-05-18T10:01:17;14.40;99.90
17599;DHT22;8918;52.092;5.232;2023-05-18T10:03:43;14.50;99.90
17599;DHT22;8918;52.092;5.232;2023-05-18T10:06:12;14.50;99.90
17599;DHT22;8918;52.092;5.232;2023-05-18T10:08:39;14.40;99.90
17599;DHT22;8918;52.092;5.232;2023-05-18T10:11:05;14.50;99.90
17599;DHT22;8918;52.092;5.232;2023-05-18T10:13:31;14.70;99.90
17599;DHT22;8918;52.092;5.232;2023-05-18T10:16:03;14.80;99.90
17599;DHT22;8918;52.092;5.232;2023-05-18T10:18:31;15.00;99.90
17599;DHT22;8918;52.092;5.232;2023-05-18T10:21:00;15.20;99.90
17599;DHT22;8918;52.092;5.232;2023-05-18T10:23:29;15.30;99.90
17599;DHT22;8918;52.092;5.232;2023-05-18T10:25:56;15.30;99.90
17599;DHT22;8918;52.092;5.232;2023-05-18T10:28:25;15.20;99.90
17599;DHT22;8918;52.092;5.232;2023-05-18T10:30:54;15.00;99.90
17599;DHT22;8918;52.092;5.232;2023-05-18T10:33:27;15.10;99.90
17599;DHT22;8918;52.092;5.232;2023-05-18T10:35:55;15.20;99.90
17599;DHT22;8918;52.092;5.232;2023-05-18T10:38:22;15.20;99.90
17599;DHT22;8918;52.092;5.232;2023-05-18T10:40:50;15.10;99.90
17599;DHT22;8918;52.092;5.232;2023-05-18T10:43:20;15.10;99.90
17599;DHT22;8918;52.092;5.232;2023-05-18T10:45:53;15.00;99.90
17599;DHT22;8918;52.092;5.232;2023-05-18T10:48:20;14.90;99.90
17599;DHT22;8918;52.092;5.232;2023-05-18T10:50:50;14.90;99.90
17599;DHT22;8918;52.092;5.232;2023-05-18T10:53:17;15.00;99.90
17599;DHT22;8918;52.092;5.232;2023-05-18T10:55:43;15.10;99.90
17599;DHT22;8918;52.092;5.232;2023-05-18T10:58:11;15.10;99.90
17599;DHT22;8918;52.092;5.232;2023-05-18T11:00:40;15.20;99.90
17599;DHT22;8918;52.092;5.232;2023-05-18T11:03:13;15.30;99.90
17599;DHT22;8918;52.092;5.232;2023-05-18T11:05:40;15.50;99.90
17599;DHT22;8918;52.092;5.232;2023-05-18T11:08:06;15.70;99.90
17599;DHT22;8918;52.092;5.232;2023-05-18T11:10:43;15.80;99.90
17599;DHT22;8918;52.092;5.232;2023-05-18T11:13:12;15.90;99.90
17599;DHT22;8918;52.092;5.232;2023-05-18T11:21:00;15.90;99.90
17599;DHT22;8918;52.092;5.232;2023-05-18T11:23:31;15.90;99.90
17599;DHT22;8918;52.092;5.232;2023-05-18T11:25:59;16.10;99.90
17599;DHT22;8918;52.092;5.232;2023-05-18T11:28:29;16.40;99.90
17599;DHT22;8918;52.092;5.232;2023-05-18T11:30:55;16.50;99.90
17599;DHT22;8918;52.092;5.232;2023-05-18T11:33:28;16.60;99.90
17599;DHT22;8918;52.092;5.232;2023-05-18T11:36:03;16.60;99.90
17599;DHT22;8918;52.092;5.232;2023-05-18T11:41:34;16.70;99.90
17599;DHT22;8918;52.092;5.232;2023-05-18T11:47:07;16.90;99.90
17599;DHT22;8918;52.092;5.232;2023-05-18T11:49:51;16.90;99.90
17599;DHT22;8918;52.092;5.232;2023-05-18T11:52:20;17.10;99.90
17599;DHT22;8918;52.092;5.232;2023-05-18T11:54:52;17.20;99.90
17599;DHT22;8918;52.092;5.232;2023-05-18T11:57:26;17.20;99.90
17599;DHT22;8918;52.092;5.232;2023-05-18T11:59:58;16.90;99.90
17599;DHT22;8918;52.092;5.232;2023-05-18T12:02:34;16.90;99.90
17599;DHT22;8918;52.092;5.232;2023-05-18T12:05:01;17.00;99.90
17599;DHT22;8918;52.092;5.232;2023-05-18T12:07:28;17.20;99.90
17599;DHT22;8918;52.092;5.232;2023-05-18T12:10:09;17.20;99.90
17599;DHT22;8918;52.092;5.232;2023-05-18T12:12:35;17.30;99.90
17599;DHT22;8918;52.092;5.232;2023-05-18T12:15:08;17.30;99.90
17599;DHT22;8918;52.092;5.232;2023-05-18T12:20:20;17.30;99.90
17599;DHT22;8918;52.092;5.232;2023-05-18T12:22:48;17.30;99.90
17599;DHT22;8918;52.092;5.232;2023-05-18T12:25:22;17.30;99.90
17599;DHT22;8918;52.092;5.232;2023-05-18T12:27:49;17.30;99.90
17599;DHT22;8918;52.092;5.232;2023-05-18T12:30:17;17.20;99.90
17599;DHT22;8918;52.092;5.232;2023-05-18T12:32:47;17.20;99.90
17599;DHT22;8918;52.092;5.232;2023-05-18T12:35:13;17.30;99.90
17599;DHT22;8918;52.092;5.232;2023-05-18T12:37:42;17.40;99.90
17599;DHT22;8918;52.092;5.232;2023-05-18T12:40:09;17.40;99.90
17599;DHT22;8918;52.092;5.232;2023-05-18T12:42:35;17.60;99.90
17599;DHT22;8918;52.092;5.232;2023-05-18T12:45:01;17.80;99.90
17599;DHT22;8918;52.092;5.232;2023-05-18T12:47:31;17.90;99.90
17599;DHT22;8918;52.092;5.232;2023-05-18T12:50:00;17.80;99.90
17599;DHT22;8918;52.092;5.232;2023-05-18T12:52:26;17.80;99.90
17599;DHT22;8918;52.092;5.232;2023-05-18T12:54:56;17.70;99.90
17599;DHT22;8918;52.092;5.232;2023-05-18T12:57:26;17.40;99.90
17599;DHT22;8918;52.092;5.232;2023-05-18T12:59:53;17.40;99.90
17599;DHT22;8918;52.092;5.232;2023-05-18T13:02:48;17.40;99.90
17599;DHT22;8918;52.092;5.232;2023-05-18T13:05:13;17.50;99.90
17599;DHT22;8918;52.092;5.232;2023-05-18T13:07:43;17.60;99.90
17599;DHT22;8918;52.092;5.232;2023-05-18T13:10:10;17.60;99.90
17599;DHT22;8918;52.092;5.232;2023-05-18T13:12:46;17.80;99.90
17599;DHT22;8918;52.092;5.232;2023-05-18T13:15:16;17.80;99.90
17599;DHT22;8918;52.092;5.232;2023-05-18T13:17:57;17.80;99.90
17599;DHT22;8918;52.092;5.232;2023-05-18T13:20:40;17.90;99.90
17599;DHT22;8918;52.092;5.232;2023-05-18T13:23:11;18.00;99.90
17599;DHT22;8918;52.092;5.232;2023-05-18T13:25:42;18.00;99.90
17599;DHT22;8918;52.092;5.232;2023-05-18T13:28:09;18.10;99.90
17599;DHT22;8918;52.092;5.232;2023-05-18T13:30:36;18.10;99.90
17599;DHT22;8918;52.092;5.232;2023-05-18T13:33:02;18.20;99.90
17599;DHT22;8918;52.092;5.232;2023-05-18T13:35:27;18.20;99.90
17599;DHT22;8918;52.092;5.232;2023-05-18T13:37:53;18.20;99.90
17599;DHT22;8918;52.092;5.232;2023-05-18T13:40:20;18.20;99.90
17599;DHT22;8918;52.092;5.232;2023-05-18T13:42:46;18.30;99.90
17599;DHT22;8918;52.092;5.232;2023-05-18T13:45:12;18.30;99.90
17599;DHT22;8918;52.092;5.232;2023-05-18T13:47:39;18.30;99.90
17599;DHT22;8918;52.092;5.232;2023-05-18T13:50:06;18.40;99.90
17599;DHT22;8918;52.092;5.232;2023-05-18T13:52:32;18.40;99.90
17599;DHT22;8918;52.092;5.232;2023-05-18T13:54:57;18.40;99.90
17599;DHT22;8918;52.092;5.232;2023-05-18T13:57:23;18.40;99.90
17599;DHT22;8918;52.092;5.232;2023-05-18T13:59:51;18.40;99.90
17599;DHT22;8918;52.092;5.232;2023-05-18T14:02:17;18.40;99.90
17599;DHT22;8918;52.092;5.232;2023-05-18T14:04:43;18.50;99.90
17599;DHT22;8918;52.092;5.232;2023-05-18T14:07:08;18.70;99.90
17599;DHT22;8918;52.092;5.232;2023-05-18T14:09:35;18.80;99.90
17599;DHT22;8918;52.092;5.232;2023-05-18T14:12:01;18.70;99.90
17599;DHT22;8918;52.092;5.232;2023-05-18T14:14:29;18.80;99.90
17599;DHT22;8918;52.092;5.232;2023-05-18T14:16:55;18.90;99.90
17599;DHT22;8918;52.092;5.232;2023-05-18T14:19:20;19.00;99.90
17599;DHT22;8918;52.092;5.232;2023-05-18T14:21:46;19.10;99.90
17599;DHT22;8918;52.092;5.232;2023-05-18T14:24:11;19.20;99.90
17599;DHT22;8918;52.092;5.232;2023-05-18T14:26:40;19.20;99.90
17599;DHT22;8918;52.092;5.232;2023-05-18T14:29:05;19.20;99.90
17599;DHT22;8918;52.092;5.232;2023-05-18T14:31:31;19.30;99.90
17599;DHT22;8918;52.092;5.232;2023-05-18T14:33:57;19.40;99.90
17599;DHT22;8918;52.092;5.232;2023-05-18T14:36:22;19.50;99.90
17599;DHT22;8918;52.092;5.232;2023-05-18T14:38:48;19.50;99.90
17599;DHT22;8918;52.092;5.232;2023-05-18T14:41:13;19.70;99.90
17599;DHT22;8918;52.092;5.232;2023-05-18T14:43:39;19.70;99.90
17599;DHT22;8918;52.092;5.232;2023-05-18T14:46:05;19.90;99.90
17599;DHT22;8918;52.092;5.232;2023-05-18T14:48:30;20.10;99.90
17599;DHT22;8918;52.092;5.232;2023-05-18T14:50:56;20.10;99.90
17599;DHT22;8918;52.092;5.232;2023-05-18T14:53:21;20.20;99.70
17599;DHT22;8918;52.092;5.232;2023-05-18T14:55:47;20.20;99.70
17599;DHT22;8918;52.092;5.232;2023-05-18T14:58:13;20.30;99.20
17599;DHT22;8918;52.092;5.232;2023-05-18T15:00:42;20.30;99.70
17599;DHT22;8918;52.092;5.232;2023-05-18T15:03:08;20.30;99.10
17599;DHT22;8918;52.092;5.232;2023-05-18T15:05:34;20.30;99.10
17599;DHT22;8918;52.092;5.232;2023-05-18T15:08:00;20.10;99.90
17599;DHT22;8918;52.092;5.232;2023-05-18T15:10:26;20.10;99.00
17599;DHT22;8918;52.092;5.232;2023-05-18T15:12:51;20.10;98.70
17599;DHT22;8918;52.092;5.232;2023-05-18T15:15:17;20.30;99.70
17599;DHT22;8918;52.092;5.232;2023-05-18T15:17:42;20.30;99.20
17599;DHT22;8918;52.092;5.232;2023-05-18T15:20:09;20.30;99.60
17599;DHT22;8918;52.092;5.232;2023-05-18T15:22:35;20.30;99.40
17599;DHT22;8918;52.092;5.232;2023-05-18T15:25:03;20.30;99.10
17599;DHT22;8918;52.092;5.232;2023-05-18T15:27:30;20.10;99.30
17599;DHT22;8918;52.092;5.232;2023-05-18T15:29:55;20.10;99.60
17599;DHT22;8918;52.092;5.232;2023-05-18T15:32:21;20.00;99.50
17599;DHT22;8918;52.092;5.232;2023-05-18T15:34:46;20.10;98.50
17599;DHT22;8918;52.092;5.232;2023-05-18T15:37:12;20.20;99.60
17599;DHT22;8918;52.092;5.232;2023-05-18T15:39:37;20.30;99.90
17599;DHT22;8918;52.092;5.232;2023-05-18T15:42:03;20.40;99.10
17599;DHT22;8918;52.092;5.232;2023-05-18T15:44:29;20.30;99.20
17599;DHT22;8918;52.092;5.232;2023-05-18T15:46:55;20.10;98.60
17599;DHT22;8918;52.092;5.232;2023-05-18T15:49:21;20.00;99.30
17599;DHT22;8918;52.092;5.232;2023-05-18T15:51:46;19.80;98.90
17599;DHT22;8918;52.092;5.232;2023-05-18T15:54:12;19.70;99.50
17599;DHT22;8918;52.092;5.232;2023-05-18T15:56:38;19.60;99.00
17599;DHT22;8918;52.092;5.232;2023-05-18T15:59:03;19.60;99.70
17599;DHT22;8918;52.092;5.232;2023-05-18T16:01:31;19.40;98.40
17599;DHT22;8918;52.092;5.232;2023-05-18T16:03:56;19.30;99.50
17599;DHT22;8918;52.092;5.232;2023-05-18T16:06:22;19.30;99.70
17599;DHT22;8918;52.092;5.232;2023-05-18T16:08:48;19.30;99.30
17599;DHT22;8918;52.092;5.232;2023-05-18T16:11:13;19.50;99.20
17599;DHT22;8918;52.092;5.232;2023-05-18T16:13:39;19.40;99.30
17599;DHT22;8918;52.092;5.232;2023-05-18T16:16:05;19.40;99.40